F\v Gure Gogoa — EAJC — position and weather

sailwx.info

Track history (hours):
 
Tides and Currents Weather Stations Pressure Air Temp Water Temp Dewpoint Dewpoint Depression Visibility Wind Speed Wind Dir Waves Ship Positions

F\v Gure Gogoa

Last reported at 2014-Sep-11 18:24 UTC. Time now 2014-Sep-17 03:38 UTC.
Position N 44°55' W 003°50'.

Length 37 m.

Type: Fishing. MMSI: 224128930.

Date/timePositionNaut miles runAvg speedWind from/ knotsBaromVisibWave heightAir tempDewpointWater temp
2014-Sep-11 18:24N 44°55' W 003°50'88 6.2
2014-Sep-11 04:12N 46°07' W 005°02'6 8.8
2014-Sep-11 03:33N 46°02' W 004°58'10 9.1
2014-Sep-11 02:27N 45°54' W 004°49'9 9.1
2014-Sep-11 01:26N 45°46' W 004°41'9 9.2
2014-Sep-11 00:25N 45°39' W 004°33'8 9.1
2014-Sep-10 23:31N 45°32' W 004°26'10 9.1
2014-Sep-10 22:28N 45°25' W 004°18'71 3.7
2014-Sep-10 03:33N 44°26' W 003°22'10 9.9
2014-Sep-10 02:33N 44°18' W 003°13'10 9.6
2014-Sep-10 01:33N 44°10' W 003°05'61 9.6
2014-Sep-09 19:14N 43°22' W 002°15'  
2014-Sep-04 03:28N 43°25' W 001°50'3 3.0
2014-Sep-04 02:33N 43°23' W 001°47'0 0.1
2014-Sep-04 01:33N 43°23' W 001°48'1 1.0
2014-Sep-04 00:33N 43°24' W 001°48'1510.1
2014-Sep-03 23:05N 43°34' W 002°04'610.1
2014-Sep-03 22:28N 43°37' W 002°11'93 2.3
2014-Sep-02 06:19N 44°50' W 003°31'  
Track history (hours):
 
Tides and Currents Weather Stations Pressure Air Temp Water Temp Dewpoint Dewpoint Depression Visibility Wind Speed Wind Dir Waves Ship Positions

F\v Gure Gogoa

Last reported at 2014-Sep-11 18:24 UTC. Time now 2014-Sep-17 03:38 UTC.
Position N 44°55' W 003°50'.

Length 37 m.

Type: Fishing. MMSI: 224128930.

Date/timePositionNaut miles runAvg speedWind from/ knotsBaromVisibWave heightAir tempDewpointWater temp
2014-Sep-11 18:24N 44°55' W 003°50'88 6.2
2014-Sep-11 04:12N 46°07' W 005°02'6 8.8
2014-Sep-11 03:33N 46°02' W 004°58'10 9.1
2014-Sep-11 02:27N 45°54' W 004°49'9 9.1
2014-Sep-11 01:26N 45°46' W 004°41'9 9.2
2014-Sep-11 00:25N 45°39' W 004°33'8 9.1
2014-Sep-10 23:31N 45°32' W 004°26'10 9.1
2014-Sep-10 22:28N 45°25' W 004°18'71 3.7
2014-Sep-10 03:33N 44°26' W 003°22'10 9.9
2014-Sep-10 02:33N 44°18' W 003°13'10 9.6
2014-Sep-10 01:33N 44°10' W 003°05'61 9.6
2014-Sep-09 19:14N 43°22' W 002°15'  
2014-Sep-04 03:28N 43°25' W 001°50'3 3.0
2014-Sep-04 02:33N 43°23' W 001°47'0 0.1
2014-Sep-04 01:33N 43°23' W 001°48'1 1.0
2014-Sep-04 00:33N 43°24' W 001°48'1510.1
2014-Sep-03 23:05N 43°34' W 002°04'610.1
2014-Sep-03 22:28N 43°37' W 002°11'93 2.3
2014-Sep-02 06:19N 44°50' W 003°31'  

Dump ship's entire track history